createdAt,value
2018-01-30T00:00:38.753Z,81.40
2018-01-30T00:02:42.088Z,81.10
2018-01-30T00:04:45.452Z,81.40
2018-01-30T00:06:48.755Z,81.40
2018-01-30T00:08:52.076Z,81.60
2018-01-30T00:10:55.407Z,81.00
2018-01-30T00:12:58.719Z,81.50
2018-01-30T00:15:02.864Z,81.30
2018-01-30T00:17:06.196Z,81.20
2018-01-30T00:19:09.510Z,82.00
2018-01-30T00:21:13.626Z,81.70
2018-01-30T00:23:17.694Z,82.30
2018-01-30T00:25:21.033Z,82.30
2018-01-30T00:27:24.355Z,82.20
2018-01-30T00:29:27.664Z,82.30
2018-01-30T00:31:31.074Z,81.90
2018-01-30T00:33:34.388Z,82.00
2018-01-30T00:35:37.742Z,82.10
2018-01-30T00:37:41.090Z,82.10
2018-01-30T00:39:44.421Z,81.80
2018-01-30T00:41:47.739Z,81.30
2018-01-30T00:43:51.822Z,82.20
2018-01-30T00:45:55.158Z,81.70
2018-01-30T00:47:58.479Z,82.10
2018-01-30T00:50:01.807Z,82.30
2018-01-30T00:52:05.141Z,82.30
2018-01-30T00:54:08.463Z,82.30
2018-01-30T00:56:11.808Z,81.50
2018-01-30T00:58:15.874Z,82.30
2018-01-30T01:00:19.221Z,82.40
2018-01-30T01:02:22.549Z,82.60
2018-01-30T01:04:25.945Z,82.50
2018-01-30T01:06:29.327Z,82.60
2018-01-30T01:08:32.638Z,82.50
2018-01-30T01:10:35.958Z,82.90
2018-01-30T01:12:40.037Z,83.00
2018-01-30T01:14:43.388Z,83.30
2018-01-30T01:16:46.726Z,83.40
2018-01-30T01:18:50.044Z,83.40
2018-01-30T01:20:54.131Z,83.20
2018-01-30T01:22:57.432Z,83.20
2018-01-30T01:25:00.794Z,83.20
2018-01-30T01:27:04.153Z,83.30
2018-01-30T01:29:07.475Z,82.90
2018-01-30T01:31:10.797Z,82.90
2018-01-30T01:33:14.157Z,83.00
2018-01-30T01:35:17.507Z,82.80
2018-01-30T01:37:20.863Z,82.80
2018-01-30T01:39:24.958Z,82.70
2018-01-30T01:41:28.268Z,82.70
2018-01-30T01:43:31.606Z,82.90
2018-01-30T01:45:34.928Z,83.00
2018-01-30T01:47:38.271Z,83.10
2018-01-30T01:49:41.643Z,82.90
2018-01-30T01:51:45.729Z,82.90
2018-01-30T01:53:49.085Z,83.00
2018-01-30T01:55:52.408Z,82.40
2018-01-30T01:57:55.736Z,82.30
2018-01-30T01:59:59.833Z,82.70
2018-01-30T02:02:03.180Z,82.50
2018-01-30T02:04:06.522Z,82.90
2018-01-30T02:06:10.604Z,82.70
2018-01-30T02:08:13.973Z,82.70
2018-01-30T02:10:17.290Z,82.30
2018-01-30T02:12:20.604Z,82.50
2018-01-30T02:14:23.942Z,82.60
2018-01-30T02:16:27.251Z,82.60
2018-01-30T02:18:31.382Z,82.80
2018-01-30T02:20:35.464Z,82.80
2018-01-30T02:22:38.783Z,82.60
2018-01-30T02:24:42.966Z,83.10
2018-01-30T02:26:46.298Z,82.60
2018-01-30T02:28:49.644Z,82.30
2018-01-30T02:30:52.958Z,82.70
2018-01-30T02:32:56.280Z,82.70
2018-01-30T02:34:59.647Z,82.60
2018-01-30T02:37:03.742Z,82.60
2018-01-30T02:39:07.048Z,82.50
2018-01-30T02:41:10.380Z,83.00
2018-01-30T02:43:13.734Z,82.70
2018-01-30T02:45:17.866Z,82.50
2018-01-30T02:47:21.191Z,82.50
2018-01-30T02:49:24.542Z,82.50
2018-01-30T02:51:28.608Z,81.60
2018-01-30T02:53:32.700Z,81.90
2018-01-30T02:55:36.064Z,82.00
2018-01-30T02:57:39.391Z,81.80
2018-01-30T02:59:42.749Z,82.00
2018-01-30T03:01:46.074Z,82.00
2018-01-30T03:03:49.376Z,82.00
2018-01-30T03:05:52.707Z,82.30
2018-01-30T03:07:56.048Z,82.20
2018-01-30T03:09:59.353Z,82.10
2018-01-30T03:12:02.693Z,81.80
2018-01-30T03:14:06.040Z,82.10
2018-01-30T03:16:09.374Z,82.10
2018-01-30T03:18:12.746Z,82.00
2018-01-30T03:20:16.103Z,81.50
2018-01-30T03:22:19.402Z,81.40
2018-01-30T03:24:22.723Z,81.70
2018-01-30T03:26:26.092Z,82.60
2018-01-30T03:28:29.405Z,81.60
2018-01-30T03:30:32.745Z,81.50
2018-01-30T03:32:36.069Z,81.50
2018-01-30T03:34:39.461Z,81.60
2018-01-30T03:36:42.801Z,81.70
2018-01-30T03:38:46.124Z,81.50
2018-01-30T03:40:49.447Z,81.30
2018-01-30T03:42:52.776Z,81.30
2018-01-30T03:44:56.097Z,81.40
2018-01-30T03:46:59.445Z,81.50
2018-01-30T03:49:02.760Z,81.80
2018-01-30T03:51:06.092Z,81.90
2018-01-30T03:53:10.183Z,81.90
2018-01-30T03:55:13.530Z,81.90
2018-01-30T03:57:16.924Z,81.70
2018-01-30T03:59:20.236Z,81.60
2018-01-30T04:01:23.558Z,81.90
2018-01-30T04:03:27.631Z,82.00
2018-01-30T04:05:30.951Z,82.00
2018-01-30T04:07:35.083Z,81.80
2018-01-30T04:09:38.401Z,81.60
2018-01-30T04:11:41.730Z,81.90
2018-01-30T04:13:45.056Z,81.50
2018-01-30T04:15:49.133Z,81.40
2018-01-30T04:17:52.457Z,81.50
2018-01-30T04:19:55.777Z,81.40
2018-01-30T04:21:59.089Z,82.00
2018-01-30T04:24:02.439Z,81.20
2018-01-30T04:26:05.757Z,81.20
2018-01-30T04:28:09.079Z,80.90
2018-01-30T04:30:12.409Z,81.50
2018-01-30T04:32:15.773Z,81.00
2018-01-30T04:34:19.199Z,80.80
2018-01-30T04:36:22.524Z,80.40
2018-01-30T04:38:25.835Z,80.30
2018-01-30T04:40:29.158Z,80.30
2018-01-30T04:42:33.242Z,80.40
2018-01-30T04:44:36.588Z,80.30
2018-01-30T04:46:39.916Z,80.30
2018-01-30T04:48:43.247Z,80.20
2018-01-30T04:50:46.580Z,80.10
2018-01-30T04:52:49.918Z,80.00
2018-01-30T04:54:54.052Z,80.20
2018-01-30T04:56:57.395Z,80.10
2018-01-30T04:59:00.735Z,80.30
2018-01-30T05:01:04.094Z,80.40
2018-01-30T05:03:08.273Z,80.40
2018-01-30T05:05:11.678Z,80.40
2018-01-30T05:07:15.079Z,80.30
2018-01-30T05:09:19.173Z,80.00
2018-01-30T05:11:22.582Z,80.00
2018-01-30T05:13:25.969Z,80.00
2018-01-30T05:15:29.332Z,78.80
2018-01-30T05:17:32.653Z,79.90
2018-01-30T05:19:35.968Z,79.90
2018-01-30T05:21:39.322Z,80.00
2018-01-30T05:23:42.681Z,79.80
2018-01-30T05:25:46.008Z,79.90
2018-01-30T05:27:50.115Z,79.50
2018-01-30T05:29:53.465Z,79.60
2018-01-30T05:31:56.951Z,78.80
2018-01-30T05:34:00.331Z,77.90
2018-01-30T05:36:04.405Z,79.40
2018-01-30T05:38:07.717Z,79.40
2018-01-30T05:40:11.928Z,79.50
2018-01-30T05:42:16.043Z,79.30
2018-01-30T05:44:20.113Z,80.20
2018-01-30T05:46:23.447Z,80.20
2018-01-30T05:48:26.791Z,80.00
2018-01-30T05:50:30.123Z,79.70
2018-01-30T05:52:33.472Z,80.20
2018-01-30T05:54:36.786Z,80.30
2018-01-30T05:56:40.125Z,80.20
2018-01-30T05:58:43.473Z,79.50
2018-01-30T06:00:46.847Z,79.10
2018-01-30T06:02:50.235Z,79.40
2018-01-30T06:04:53.570Z,78.90
2018-01-30T06:06:56.891Z,78.80
2018-01-30T06:09:00.280Z,79.80
2018-01-30T06:11:03.638Z,80.70
2018-01-30T06:13:07.025Z,80.70
2018-01-30T06:15:10.331Z,81.10
2018-01-30T06:17:13.662Z,81.50
2018-01-30T06:19:16.996Z,81.60
2018-01-30T06:21:21.067Z,81.50
2018-01-30T06:23:24.403Z,81.50
2018-01-30T06:25:28.486Z,81.60
2018-01-30T06:27:31.799Z,81.50
2018-01-30T06:29:35.952Z,81.30
2018-01-30T06:31:39.407Z,81.40
2018-01-30T06:33:43.539Z,81.40
2018-01-30T06:35:47.053Z,81.30
2018-01-30T06:37:50.513Z,81.00
2018-01-30T06:39:53.989Z,81.00
2018-01-30T06:41:58.084Z,80.50
2018-01-30T06:44:01.421Z,80.40
2018-01-30T06:46:04.732Z,80.20
2018-01-30T06:48:08.058Z,80.50
2018-01-30T06:50:11.404Z,80.00
2018-01-30T06:52:14.727Z,80.20
2018-01-30T06:54:18.086Z,80.30
2018-01-30T06:56:21.394Z,80.80
2018-01-30T06:58:24.799Z,80.10
2018-01-30T07:00:28.149Z,80.20
2018-01-30T07:02:31.465Z,80.20
2018-01-30T07:04:34.820Z,80.10
2018-01-30T07:06:38.125Z,80.10
2018-01-30T07:08:41.441Z,80.30
2018-01-30T07:10:45.702Z,79.30
2018-01-30T07:12:49.791Z,78.50
2018-01-30T07:14:53.141Z,78.60
2018-01-30T07:16:56.461Z,78.70
2018-01-30T07:18:59.782Z,78.70
2018-01-30T07:21:04.705Z,78.70
2018-01-30T07:23:08.812Z,78.10
2018-01-30T07:25:12.199Z,78.30
2018-01-30T07:27:15.536Z,78.20
2018-01-30T07:29:20.548Z,78.70
2018-01-30T07:31:24.061Z,78.50
2018-01-30T07:33:27.533Z,78.30
2018-01-30T07:35:30.872Z,78.00
2018-01-30T07:37:34.188Z,78.40
2018-01-30T07:39:37.502Z,78.50
2018-01-30T07:41:41.674Z,78.30
2018-01-30T07:43:44.984Z,78.60
2018-01-30T07:45:49.268Z,78.50
2018-01-30T07:47:53.482Z,78.50
2018-01-30T07:49:57.728Z,78.20
2018-01-30T07:52:01.167Z,78.10
2018-01-30T07:54:04.483Z,78.10
2018-01-30T07:56:07.852Z,77.40
2018-01-30T07:58:11.153Z,78.80
2018-01-30T08:00:14.490Z,77.80
2018-01-30T08:02:18.863Z,77.80
2018-01-30T08:04:22.183Z,77.70
2018-01-30T08:06:25.593Z,77.90
2018-01-30T08:08:28.928Z,77.60
2018-01-30T08:10:33.115Z,77.60
2018-01-30T08:12:36.484Z,76.60
2018-01-30T08:14:40.585Z,76.60
2018-01-30T08:16:44.427Z,76.90
2018-01-30T08:18:47.741Z,77.80
2018-01-30T08:20:51.086Z,78.60
2018-01-30T08:22:55.902Z,76.80
2018-01-30T08:25:00.628Z,73.50
2018-01-30T08:27:04.716Z,73.00
2018-01-30T08:29:08.223Z,72.90
2018-01-30T08:31:11.580Z,72.70
2018-01-30T08:33:15.510Z,73.70
2018-01-30T08:35:18.882Z,74.50
2018-01-30T08:37:23.095Z,74.60
2018-01-30T08:39:26.414Z,73.40
2018-01-30T08:41:30.517Z,73.60
2018-01-30T08:43:34.644Z,73.90
2018-01-30T08:45:38.770Z,73.90
2018-01-30T08:47:42.074Z,73.90
2018-01-30T08:49:45.399Z,74.00
2018-01-30T08:51:48.809Z,74.30
2018-01-30T08:53:52.209Z,73.70
2018-01-30T08:55:56.297Z,74.70
2018-01-30T08:58:00.398Z,74.80
2018-01-30T09:00:04.065Z,74.50
2018-01-30T09:02:07.500Z,75.10
2018-01-30T09:04:10.861Z,75.10
2018-01-30T09:06:14.225Z,75.20
2018-01-30T09:08:17.560Z,75.10
2018-01-30T09:10:21.901Z,75.70
2018-01-30T09:12:25.720Z,74.90
2018-01-30T09:14:29.651Z,75.90
2018-01-30T09:16:33.845Z,76.50
2018-01-30T09:18:38.105Z,76.10
2018-01-30T09:20:41.539Z,76.80
2018-01-30T09:22:45.001Z,76.40
2018-01-30T09:24:48.444Z,76.30
2018-01-30T09:26:51.833Z,76.60
2018-01-30T09:28:57.329Z,76.80
2018-01-30T09:31:00.676Z,76.10
2018-01-30T09:33:04.550Z,74.40
2018-01-30T09:35:08.039Z,71.30
2018-01-30T09:37:12.844Z,70.30
2018-01-30T09:39:17.142Z,68.70
2018-01-30T09:41:20.735Z,65.90
2018-01-30T09:43:24.074Z,62.10
2018-01-30T09:45:27.466Z,60.60
2018-01-30T09:47:31.605Z,61.50
2018-01-30T09:49:34.994Z,61.30
2018-01-30T09:51:38.445Z,63.80
2018-01-30T09:53:41.786Z,57.60
2018-01-30T09:55:45.152Z,56.60
2018-01-30T09:57:48.510Z,55.10
2018-01-30T09:59:51.859Z,53.10
2018-01-30T10:01:55.988Z,42.60
2018-01-30T10:03:59.309Z,42.70
2018-01-30T10:06:02.672Z,39.10
2018-01-30T10:08:06.121Z,40.80
2018-01-30T10:10:10.230Z,43.60
2018-01-30T10:12:13.632Z,43.80
2018-01-30T10:14:16.991Z,45.40
2018-01-30T10:16:21.132Z,47.80
2018-01-30T10:18:25.208Z,46.50
2018-01-30T10:20:28.584Z,46.60
2018-01-30T10:22:31.945Z,48.40
2018-01-30T10:24:35.294Z,49.70
2018-01-30T10:26:38.658Z,47.90
2018-01-30T10:28:41.997Z,50.10
2018-01-30T10:30:45.423Z,52.80
2018-01-30T10:32:48.759Z,53.70
2018-01-30T10:34:52.198Z,56.00
2018-01-30T10:36:55.559Z,52.30
2018-01-30T10:39:00.576Z,55.30
2018-01-30T10:41:04.684Z,56.40
2018-01-30T10:43:08.052Z,56.10
2018-01-30T10:45:11.442Z,57.80
2018-01-30T10:47:14.872Z,57.20
2018-01-30T10:49:18.222Z,57.30
2018-01-30T10:51:21.555Z,58.20
2018-01-30T10:53:25.751Z,55.10
2018-01-30T10:55:29.155Z,55.10
2018-01-30T10:57:32.521Z,55.30
2018-01-30T10:59:36.709Z,59.30
2018-01-30T11:01:40.083Z,59.50
2018-01-30T11:03:43.452Z,60.00
2018-01-30T11:05:46.907Z,59.90
2018-01-30T11:07:50.244Z,57.30
2018-01-30T11:09:53.641Z,56.60
2018-01-30T11:11:57.051Z,57.60
2018-01-30T11:14:00.507Z,58.20
2018-01-30T11:16:03.918Z,57.80
2018-01-30T11:18:07.314Z,57.50
2018-01-30T11:20:11.664Z,58.50
2018-01-30T11:22:15.215Z,58.20
2018-01-30T11:24:18.749Z,57.90
2018-01-30T11:26:22.061Z,56.40
2018-01-30T11:28:25.384Z,49.80
2018-01-30T11:30:29.495Z,50.20
2018-01-30T11:32:32.929Z,50.00
2018-01-30T11:34:36.264Z,51.60
2018-01-30T11:36:40.479Z,50.30
2018-01-30T11:38:43.875Z,50.30
2018-01-30T11:40:48.123Z,50.30
2018-01-30T11:42:51.433Z,52.90
2018-01-30T11:44:55.689Z,56.10
2018-01-30T11:46:59.827Z,54.00
2018-01-30T11:49:03.964Z,53.10
2018-01-30T11:51:07.405Z,53.10
2018-01-30T11:53:10.918Z,52.40
2018-01-30T11:55:16.204Z,51.20
2018-01-30T11:57:19.618Z,50.60
2018-01-30T11:59:23.009Z,53.00
2018-01-30T12:01:27.255Z,55.80
2018-01-30T12:03:30.666Z,55.70
2018-01-30T12:05:34.077Z,57.80
2018-01-30T12:07:37.518Z,57.50
2018-01-30T12:09:41.065Z,54.60
2018-01-30T12:11:44.506Z,52.50
2018-01-30T12:13:47.901Z,54.10
2018-01-30T12:15:52.185Z,53.50
2018-01-30T12:17:56.346Z,54.30
2018-01-30T12:19:59.869Z,53.90
2018-01-30T12:22:03.383Z,55.20
2018-01-30T12:24:08.808Z,55.90
2018-01-30T12:26:13.111Z,58.30
2018-01-30T12:28:16.753Z,58.20
2018-01-30T12:30:20.873Z,57.50
2018-01-30T12:34:32.001Z,57.40
2018-01-30T12:36:35.430Z,58.00
2018-01-30T12:38:39.662Z,58.70
2018-01-30T12:40:43.147Z,58.40
2018-01-30T12:42:46.596Z,55.50
2018-01-30T12:44:50.097Z,56.00
2018-01-30T12:46:54.262Z,55.30
2018-01-30T12:48:57.747Z,55.30
2018-01-30T12:51:02.174Z,50.30
2018-01-30T12:53:06.136Z,50.60
2018-01-30T12:55:10.109Z,52.10
2018-01-30T12:57:13.779Z,53.40
2018-01-30T12:59:17.270Z,52.60
2018-01-30T13:01:21.245Z,52.80
2018-01-30T13:03:24.770Z,52.60
2018-01-30T13:05:28.199Z,54.20
2018-01-30T13:07:31.696Z,53.60
2018-01-30T13:09:35.990Z,53.40
2018-01-30T13:11:39.399Z,54.20
2018-01-30T13:13:43.066Z,55.10
2018-01-30T13:15:46.533Z,52.30
2018-01-30T13:17:49.929Z,52.20
2018-01-30T13:19:55.275Z,52.00
2018-01-30T13:21:58.721Z,52.00
2018-01-30T13:24:02.188Z,51.20
2018-01-30T13:26:05.628Z,52.10
2018-01-30T13:28:10.342Z,51.70
2018-01-30T13:30:14.975Z,50.00
2018-01-30T13:32:18.551Z,47.50
2018-01-30T13:34:22.215Z,47.30
2018-01-30T13:36:27.117Z,49.10
2018-01-30T13:38:31.347Z,49.40
2018-01-30T13:40:34.807Z,49.40
2018-01-30T13:42:39.966Z,48.80
2018-01-30T13:44:44.221Z,48.20
2018-01-30T13:46:47.661Z,48.40
2018-01-30T13:48:51.428Z,50.20
2018-01-30T13:50:56.239Z,49.70
2018-01-30T13:52:59.647Z,51.00
2018-01-30T13:55:04.275Z,52.70
2018-01-30T13:57:08.918Z,49.40
2018-01-30T13:59:12.368Z,52.40
2018-01-30T14:01:15.983Z,51.20
2018-01-30T14:03:19.437Z,51.70
2018-01-30T14:05:24.651Z,51.00
2018-01-30T14:07:29.122Z,51.20
2018-01-30T14:09:32.502Z,52.60
2018-01-30T14:11:39.487Z,54.20
2018-01-30T14:13:42.879Z,54.30
2018-01-30T14:15:47.926Z,52.20
2018-01-30T14:17:52.118Z,52.20
2018-01-30T14:19:55.452Z,53.90
2018-01-30T14:22:01.786Z,53.80
2018-01-30T14:24:05.931Z,54.80
2018-01-30T14:26:10.107Z,48.80
2018-01-30T14:28:13.530Z,48.10
2018-01-30T14:30:18.033Z,49.00
2018-01-30T14:32:21.414Z,49.90
2018-01-30T14:34:24.788Z,52.10
2018-01-30T14:36:28.628Z,53.30
2018-01-30T14:38:33.089Z,53.40
2018-01-30T14:40:37.553Z,52.20
2018-01-30T14:42:42.261Z,50.00
2018-01-30T14:44:47.461Z,49.10
2018-01-30T14:46:51.040Z,45.20
2018-01-30T14:48:54.598Z,45.20
2018-01-30T14:50:59.863Z,44.80
2018-01-30T14:53:04.348Z,47.70
2018-01-30T14:55:07.716Z,47.80
2018-01-30T14:57:11.096Z,48.30
2018-01-30T14:59:17.125Z,49.10
2018-01-30T15:01:22.137Z,48.80
2018-01-30T15:03:25.822Z,47.20
2018-01-30T15:05:29.632Z,49.50
2018-01-30T15:07:55.456Z,50.20
2018-01-30T15:10:03.376Z,51.00
2018-01-30T15:12:07.507Z,51.30
2018-01-30T15:14:11.170Z,51.50
2018-01-30T15:16:14.758Z,51.50
2018-01-30T15:18:18.360Z,51.50
2018-01-30T15:20:22.732Z,51.50
2018-01-30T15:22:26.328Z,51.60
2018-01-30T15:24:29.676Z,51.80
2018-01-30T15:26:39.180Z,52.30
2018-01-30T15:28:43.109Z,52.40
2018-01-30T15:30:46.614Z,54.10
2018-01-30T15:32:50.244Z,53.80
2018-01-30T15:34:53.654Z,53.30
2018-01-30T15:36:57.321Z,54.30
2018-01-30T15:39:02.014Z,54.30
2018-01-30T15:41:05.608Z,54.60
2018-01-30T15:43:09.625Z,53.90
2018-01-30T15:45:13.829Z,53.90
2018-01-30T15:47:17.438Z,53.80
2018-01-30T15:49:21.197Z,53.30
2018-01-30T15:51:24.851Z,53.60
2018-01-30T15:53:29.535Z,54.80
2018-01-30T15:55:36.998Z,55.60
2018-01-30T15:57:41.871Z,55.30
2018-01-30T15:59:49.157Z,55.50
2018-01-30T16:01:54.670Z,54.80
2018-01-30T16:04:00.692Z,54.70
2018-01-30T16:06:05.500Z,54.60
2018-01-30T16:08:08.996Z,54.80
2018-01-30T16:10:13.972Z,55.20
2018-01-30T16:12:17.346Z,55.60
2018-01-30T16:14:23.368Z,56.60
2018-01-30T16:16:31.127Z,56.60
2018-01-30T16:18:37.158Z,57.00
2018-01-30T16:20:44.076Z,57.00
2018-01-30T16:22:48.787Z,56.90
2018-01-30T16:24:58.231Z,57.80
2018-01-30T16:27:02.037Z,58.10
2018-01-30T16:29:08.561Z,57.50
2018-01-30T16:31:11.939Z,57.50
2018-01-30T16:33:15.432Z,57.60
2018-01-30T16:35:18.999Z,58.00
2018-01-30T16:37:22.383Z,58.30
2018-01-30T16:39:25.831Z,57.80
2018-01-30T16:41:29.198Z,57.60
2018-01-30T16:43:33.576Z,58.40
2018-01-30T16:45:37.066Z,58.60
2018-01-30T16:47:41.954Z,58.00
2018-01-30T16:49:45.482Z,58.70
2018-01-30T16:51:50.244Z,59.10
2018-01-30T16:53:54.729Z,59.40
2018-01-30T16:55:58.466Z,59.80
2018-01-30T16:58:01.869Z,59.20
2018-01-30T17:00:05.253Z,59.70
2018-01-30T17:02:08.681Z,59.90
2018-01-30T17:04:12.061Z,60.80
2018-01-30T17:06:15.495Z,60.90
2018-01-30T17:08:19.426Z,60.50
2018-01-30T17:10:22.804Z,61.40
2018-01-30T17:12:26.193Z,62.20
2018-01-30T17:14:29.561Z,62.40
2018-01-30T17:16:33.018Z,62.40
2018-01-30T17:18:36.373Z,62.70
2018-01-30T17:20:39.859Z,62.90
2018-01-30T17:22:44.105Z,63.70
2018-01-30T17:24:48.505Z,63.80
2018-01-30T17:26:52.714Z,64.80
2018-01-30T17:28:56.109Z,65.00
2018-01-30T17:31:02.272Z,64.70
2018-01-30T17:33:06.147Z,64.70
2018-01-30T17:35:12.286Z,65.10
2018-01-30T17:37:16.771Z,65.50
2018-01-30T17:39:20.471Z,65.70
2018-01-30T17:41:25.060Z,65.50
2018-01-30T17:43:29.770Z,66.10
2018-01-30T17:45:33.158Z,66.40
2018-01-30T17:47:36.843Z,66.50
2018-01-30T17:49:41.057Z,66.30
2018-01-30T17:51:44.605Z,66.60
2018-01-30T17:53:48.077Z,67.10
2018-01-30T17:55:51.525Z,66.90
2018-01-30T17:57:55.700Z,66.50
2018-01-30T17:59:59.117Z,67.30
2018-01-30T18:02:03.554Z,67.50
2018-01-30T18:04:06.930Z,67.50
2018-01-30T18:06:10.392Z,67.90
2018-01-30T18:08:13.821Z,67.70
2018-01-30T18:10:17.208Z,67.50
2018-01-30T18:12:20.975Z,67.60
2018-01-30T18:14:25.324Z,67.50
2018-01-30T18:16:28.834Z,67.50
2018-01-30T18:18:33.036Z,68.10
2018-01-30T18:20:38.665Z,68.00
2018-01-30T18:22:42.918Z,68.30
2018-01-30T18:24:58.435Z,67.90
2018-01-30T18:27:01.809Z,67.10
2018-01-30T18:29:06.158Z,66.50
2018-01-30T18:31:11.395Z,66.20
2018-01-30T18:33:14.831Z,66.50
2018-01-30T18:35:18.265Z,66.50
2018-01-30T18:37:21.815Z,66.80
2018-01-30T18:39:26.301Z,66.00
2018-01-30T18:41:34.546Z,66.20
2018-01-30T18:43:38.169Z,66.10
2018-01-30T18:45:41.544Z,66.00
2018-01-30T18:47:54.151Z,66.10
2018-01-30T18:49:57.638Z,66.70
2018-01-30T18:52:03.302Z,67.30
2018-01-30T18:54:07.703Z,67.80
2018-01-30T18:56:11.433Z,67.50
2018-01-30T18:58:17.311Z,67.30
2018-01-30T19:00:22.005Z,67.30
2018-01-30T19:02:25.845Z,67.30
2018-01-30T19:04:30.626Z,67.30
2018-01-30T19:06:34.243Z,67.50
2018-01-30T19:08:37.841Z,67.60
2018-01-30T19:10:41.541Z,67.50
2018-01-30T19:12:45.271Z,67.80
2018-01-30T19:14:49.024Z,67.00
2018-01-30T19:16:52.664Z,67.30
2018-01-30T19:18:56.331Z,67.40
2018-01-30T19:21:15.952Z,67.70
2018-01-30T19:23:21.799Z,67.50
2018-01-30T19:25:35.329Z,67.60
2018-01-30T19:27:39.002Z,67.70
2018-01-30T19:29:42.840Z,67.50
2018-01-30T19:31:47.033Z,68.20
2018-01-30T19:33:50.708Z,67.50
2018-01-30T19:35:54.340Z,67.20
2018-01-30T19:37:58.117Z,67.50
2018-01-30T19:42:15.275Z,68.00
2018-01-30T19:44:21.327Z,68.80
2018-01-30T19:46:25.091Z,69.20
2018-01-30T19:48:32.486Z,69.70
2018-01-30T19:50:36.795Z,70.60
2018-01-30T19:52:41.087Z,69.70
2018-01-30T19:54:44.959Z,69.50
2018-01-30T19:56:50.948Z,69.40
2018-01-30T19:58:54.449Z,69.10
2018-01-30T20:00:58.019Z,69.40
2018-01-30T20:03:01.465Z,69.80
2018-01-30T20:05:08.757Z,69.70
2018-01-30T20:07:12.312Z,69.80
2018-01-30T20:09:17.374Z,69.50
2018-01-30T20:11:21.076Z,69.50
2018-01-30T20:13:25.292Z,69.70
2018-01-30T20:15:29.012Z,69.90
2018-01-30T20:17:37.604Z,69.80
2018-01-30T20:19:41.032Z,69.70
2018-01-30T20:21:45.248Z,70.30
2018-01-30T20:23:52.202Z,70.60
2018-01-30T20:25:56.360Z,70.60
2018-01-30T20:28:00.607Z,71.10
2018-01-30T20:30:04.067Z,71.10
2018-01-30T20:32:08.384Z,71.20
2018-01-30T20:34:12.076Z,72.10
2018-01-30T20:36:15.560Z,71.80
2018-01-30T20:38:19.003Z,71.90
2018-01-30T20:40:22.526Z,72.30
2018-01-30T20:42:26.274Z,72.20
2018-01-30T20:44:31.857Z,72.00
2018-01-30T20:46:36.772Z,71.90
2018-01-30T20:48:40.395Z,72.20
2018-01-30T20:50:44.254Z,72.20
2018-01-30T20:52:48.481Z,72.90
2018-01-30T20:54:54.584Z,73.00
2018-01-30T20:56:58.170Z,72.90
2018-01-30T20:59:03.064Z,72.90
2018-01-30T21:01:07.072Z,72.40
2018-01-30T21:03:14.988Z,73.10
2018-01-30T21:05:19.480Z,73.00
2018-01-30T21:07:24.712Z,72.70
2018-01-30T21:09:31.786Z,72.70
2018-01-30T21:11:38.249Z,72.80
2018-01-30T21:13:48.927Z,73.00
2018-01-30T21:15:56.941Z,72.90
2018-01-30T21:18:01.104Z,72.50
2018-01-30T21:20:06.462Z,72.50
2018-01-30T21:22:11.989Z,73.20
2018-01-30T21:24:16.072Z,73.20
2018-01-30T21:26:22.013Z,73.00
2018-01-30T21:28:26.476Z,73.30
2018-01-30T21:30:32.606Z,73.00
2018-01-30T21:32:36.414Z,72.40
2018-01-30T21:34:40.781Z,73.00
2018-01-30T21:36:45.008Z,72.90
2018-01-30T21:38:48.775Z,72.70
2018-01-30T21:40:54.646Z,72.70
2018-01-30T21:42:58.876Z,73.50
2018-01-30T21:45:02.946Z,73.20
2018-01-30T21:47:08.509Z,73.90
2018-01-30T21:49:13.999Z,73.70
2018-01-30T21:51:18.529Z,73.70
2018-01-30T21:53:23.824Z,74.10
2018-01-30T21:55:27.159Z,73.90
2018-01-30T21:57:31.302Z,74.80
2018-01-30T21:59:34.642Z,74.40
2018-01-30T22:01:37.986Z,75.30
2018-01-30T22:03:41.305Z,75.20
2018-01-30T22:05:44.649Z,74.30
2018-01-30T22:07:48.062Z,74.70
2018-01-30T22:09:51.380Z,74.30
2018-01-30T22:11:54.770Z,74.50
2018-01-30T22:13:58.145Z,74.80
2018-01-30T22:16:01.521Z,74.40
2018-01-30T22:18:04.903Z,74.70
2018-01-30T22:20:08.237Z,74.80
2018-01-30T22:22:11.621Z,74.10
2018-01-30T22:24:14.973Z,74.00
2018-01-30T22:26:18.354Z,74.50
2018-01-30T22:28:21.737Z,74.00
2018-01-30T22:30:25.974Z,74.30
2018-01-30T22:32:29.399Z,74.30
2018-01-30T22:34:32.746Z,74.20
2018-01-30T22:36:36.572Z,74.10
2018-01-30T22:38:41.018Z,74.00
2018-01-30T22:40:45.437Z,74.10
2018-01-30T22:42:48.772Z,74.10
2018-01-30T22:44:52.180Z,74.60
2018-01-30T22:46:55.553Z,75.00
